No se requiere un especial cuidado respecto a la situación meteorológica.   -   No hay avisos

Informes METAR

 

LEZL - Sevilla, Spain
Distancia de la estación: ENE 8km
Actualización: 27/05/2015 17:00
Despejado
Despejado
 Viento de ONO
Viento: ONO 13 km/h
Temperatura: 33°C
Rocío: 6°C
Humedad: 18%
Barómetro: 1013 hPa
Resumen: Despejado
Visibilidad: mayor de 10 km
2015/05/27 15:00 LEZL 271500Z 30007KT 250V340 CAVOK 33/06 Q1013 NOSIG
LEMO - Morón, Spain
Distancia de la estación: SE 43km
Actualización: 27/05/2015 17:00
Poco nuboso
Poco nuboso
 Viento de O
Viento: O 9 km/h
Temperatura: 33°C
Rocío: 10°C
Humedad: 24%
Barómetro: 1013 hPa
Nubes: Poco nuboso
Visibilidad: 10 km
Detalles de las nubes: Poco nuboso 914 m
2015/05/27 15:00 LEMO 271500Z 27005KT 200V350 9999 FEW030 33/10 Q1013 NOSIG
LEJR - Jeréz, Spain
Distancia de la estación: S 71km
Actualización: 27/05/2015 17:30
Poco nuboso
Poco nuboso
 Viento de S
Viento: S 17 km/h
Temperatura: 33°C
Rocío: 9°C
Humedad: 23%
Barómetro: 1014 hPa
Nubes: Poco nuboso
Visibilidad: 10 km
Detalles de las nubes: Poco nuboso 914 m
2015/05/27 15:30 LEJR 271530Z 17009KT 120V210 9999 FEW030 33/09 Q1014
 
LERT - Rota, Spain
Distancia de la estación: SSO 89km
Actualización: 27/05/2015 17:00
Poco nuboso
Poco nuboso
 Viento de OSO
Viento: OSO 13 km/h
Temperatura: 27°C
Índice de calor: 27°C
Rocío: 15°C
Humedad: 48%
Barómetro: 1014 hPa
Nubes: Poco nuboso
Visibilidad: 10 km
Detalles de las nubes: Poco nuboso 1219 m
2015/05/27 15:00 LERT 271500Z 25007KT 220V290 9999 FEW040 27/15 Q1014 NOSIG
LEMG - Málaga, Spain
Distancia de la estación: ESE 157km
Actualización: 27/05/2015 17:30
Poco nuboso
Poco nuboso
 Viento de SE
Viento: SE 13 km/h
Temperatura: 23°C
Rocío: 11°C
Humedad: 47%
Barómetro: 1016 hPa
Nubes: Poco nuboso
Visibilidad: 10 km
Detalles de las nubes: Poco nuboso 1524 m
2015/05/27 15:30 LEMG 271530Z 13007KT 100V160 9999 FEW050 23/11 Q1016 NOSIG
LEBA - Córdoba, Spain
Distancia de la estación: ENE 115km
Actualización: 27/05/2015 17:00
Despejado
Despejado
 Viento de NNO
Viento: NNO 4 km/h
Temperatura: 33°C
Rocío: 3°C
Humedad: 15%
Barómetro: 1013 hPa
Resumen: Despejado
Visibilidad: mayor de 10 km
2015/05/27 15:00 LEBA 271500Z 33002KT CAVOK 33/03 Q1013
 
LEGR - Granada, Spain
Distancia de la estación: E 198km
Actualización: 27/05/2015 17:30
Poco nuboso
Poco nuboso
 Viento de S
Viento: S 24 km/h
Temperatura: 31°C
Rocío: 7°C
Humedad: 22%
Barómetro: 1015 hPa
Nubes: Poco nuboso
Visibilidad: 10 km
Detalles de las nubes: Poco nuboso 1829 m
2015/05/27 15:30 LEGR 271530Z 17013KT 140V200 9999 FEW060 31/07 Q1015
LEAM - Almería, Spain
Distancia de la estación: E 326km
Actualización: 27/05/2015 17:30
Poco nuboso
Poco nuboso
 Viento de SSO
Viento: SSO 9 km/h
Temperatura: 24°C
Rocío: 14°C
Humedad: 54%
Barómetro: 1016 hPa
Nubes: Poco nuboso
Visibilidad: 10 km
Detalles de las nubes: Poco nuboso 1372 m
2015/05/27 15:30 LEAM 271530Z 21005KT 170V250 9999 FEW045 24/14 Q1016
LEMD - Madrid/Barajas, Spain
Distancia de la estación: NNE 402km
Actualización: 27/05/2015 17:30
Despejado
Despejado
 Viento de variable
Viento: variable 9 km/h
Temperatura: 29°C
Rocío: 3°C
Humedad: 19%
Barómetro: 1016 hPa
Resumen: Despejado
Visibilidad: mayor de 10 km
2015/05/27 15:30 LEMD 271530Z VRB05KT CAVOK 29/03 Q1016 NOSIG
 
LEVD - Valladolid, Spain
Distancia de la estación: N 492km
Actualización: 27/05/2015 17:30
Despejado
Despejado
 Viento de NE
Viento: NE 19 km/h
Temperatura: 24°C
Rocío: 6°C
Humedad: 31%
Barómetro: 1019 hPa
Resumen: Despejado
Visibilidad: mayor de 10 km
2015/05/27 15:30 LEVD 271530Z 04010KT 010V070 CAVOK 24/06 Q1019
LEBL - Barcelona, Spain
Distancia de la estación: NE 816km
Actualización: 27/05/2015 17:30
Poco nuboso
Poco nuboso
 Viento de SE
Viento: SE 15 km/h
Temperatura: 20°C
Rocío: 15°C
Humedad: 73%
Barómetro: 1019 hPa
Nubes: Poco nuboso
Visibilidad: 10 km
Detalles de las nubes: Poco nuboso 549 m
2015/05/27 15:30 LEBL 271530Z 14008KT 110V190 9999 FEW018 20/15 Q1019 NOSIG
LEVC - Valencia, Spain
Distancia de la estación: ENE 535km
Actualización: 27/05/2015 17:30
Poco nuboso
Poco nuboso
 Viento de ESE
Viento: ESE 17 km/h
Temperatura: 24°C
Rocío: 13°C
Humedad: 50%
Barómetro: 1017 hPa
Nubes: Poco nuboso
Visibilidad: 10 km
Detalles de las nubes: Poco nuboso 762 m
2015/05/27 15:30 LEVC 271530Z 12009KT 070V150 9999 FEW025 24/13 Q1017 NOSIG